Terminal Aerodrome Forecast
Issued by NWS

Home | Current Version | Previous Version | Graphics & Text | Print | Product List | Glossary On
Versions: 1 2 3 4 5 6 7 8 9 10 11 12 13 14 15 16 17 18
919
FTUS43 KICT 242320
TAFSLN
TAF
KSLN 242320Z 2500/2524 33012KT P6SM VCSH OVC050
     FM250200 33011KT P6SM VCSH OVC025
     FM250500 33011KT P6SM -SHRA OVC015
     FM251000 32010KT P6SM -SHRA OVC008
     FM251100 32010KT P6SM VCSH OVC008
     FM251800 36010KT P6SM OVC015=

USA.gov is the U.S. government's official web portal to all federal, state and local government web resources and services.